| Date | Time | Temp. (oF) | Dew Point (oF) | Rel. Hum. (%) | Press. (in.) | Wind Dir. | Wind Speed (mph) | Hourly Rainfall (in.) |
|
|---|---|---|---|---|---|---|---|---|---|
| 1 | 07/24 | 00:00 | 66 | 66 | 100 | 29.88 | ENE | 0 | 0.00 |
| 2 | 07/23 | 23:00 | 67 | 66 | 98 | 29.88 | NE | 5 | 0.01 |
| 3 | 07/23 | 22:00 | 68 | 67 | 97 | 29.88 | ENE | 4 | 0.11 |
| 4 | 07/23 | 21:00 | 72 | 69 | 91 | 29.85 | SE | 6 | 0.01 |
| 5 | 07/23 | 20:00 | 73 | 69 | 88 | 29.85 | ESE | 5 | 0.00 |
| 6 | 07/23 | 19:00 | 75 | 69 | 83 | 29.85 | SE | 5 | 0.00 |
| 7 | 07/23 | 18:00 | 78 | 70 | 79 | 29.84 | SSE | 6 | 0.00 |
| 8 | 07/23 | 17:00 | 79 | 71 | 78 | 29.85 | ESE | 4 | 0.00 |
| 9 | 07/23 | 16:00 | 79 | 71 | 78 | 29.87 | SE | 7 | 0.00 |
| 10 | 07/23 | 15:00 | 79 | 71 | 79 | 29.88 | ESE | 10 | 0.00 |
| 11 | 07/23 | 14:00 | 76 | 72 | 90 | 29.91 | SE | 8 | 0.00 |
| 12 | 07/23 | 13:00 | 74 | 73 | 98 | 29.94 | ENE | 0 | 0.06 |
| 13 | 07/23 | 12:00 | 72 | 71 | 97 | 29.96 | SSW | 0 | 0.20 |
| 14 | 07/23 | 11:00 | 73 | 71 | 96 | 29.96 | ESE | 0 | 0.10 |
| 15 | 07/23 | 10:00 | 72 | 71 | 98 | 29.96 | ENE | 0 | 0.01 |
| 16 | 07/23 | 09:00 | 71 | 69 | 96 | 29.99 | ESE | 0 | 0.00 |
| 17 | 07/23 | 08:00 | 71 | 70 | 98 | 30.00 | S | 2 | 0.00 |
| 18 | 07/23 | 07:00 | 70 | 69 | 99 | 29.99 | ESE | 0 | 0.00 |
| 19 | 07/23 | 06:00 | 69 | 68 | 99 | 30.01 | NE | 0 | 0.00 |
| 20 | 07/23 | 05:00 | 68 | 67 | 99 | 30.02 | NE | 0 | 0.00 |
| 21 | 07/23 | 04:00 | 68 | 67 | 98 | 30.04 | ESE | 0 | 0.00 |
| 22 | 07/23 | 03:00 | 69 | 68 | 98 | 30.04 | S | 0 | 0.00 |
| 23 | 07/23 | 02:00 | 69 | 68 | 97 | 30.04 | SSW | 0 | 0.00 |
| 24 | 07/23 | 01:00 | 70 | 68 | 96 | 30.05 | ESE | 0 | 0.00 |